Time;durP1;ratioP1;P1;durP2;ratioP2;P2;SDS_P1;SDS_P2;PMS_P1;PMS_P2;Temp;Humidity;BMP_temperature;BMP_pressure;BME280_temperature;BME280_humidity;BME280_pressure;Samples;Min_cycle;Max_cycle;Signal;HPM_P1;HPM_P2
2023/08/18 00:08:38;;;;;;;1.88;1.10;;;;;;;;;;20960519;28;20686;-83
2023/08/18 00:18:40;;;;;;;1.92;1.23;;;;;;;;;;20998526;28;20232;-83
2023/08/18 00:28:41;;;;;;;1.08;0.88;;;;;;;;;;21056870;28;20265;-82
2023/08/18 00:38:43;;;;;;;1.52;0.80;;;;;;;;;;20997299;28;20313;-83
2023/08/18 00:48:45;;;;;;;1.67;1.05;;;;;;;;;;21008710;28;20254;-81
2023/08/18 00:58:47;;;;;;;1.23;1.00;;;;;;;;;;21007405;28;20568;-83
2023/08/18 01:08:50;;;;;;;1.15;0.80;;;;;;;;;;20971880;28;20232;-82
2023/08/18 01:18:52;;;;;;;1.83;0.95;;;;;;;;;;21024231;28;20235;-83
2023/08/18 01:28:54;;;;;;;2.22;0.90;;;;;;;;;;21021156;28;20220;-82
2023/08/18 01:38:56;;;;;;;1.23;1.00;;;23.00;99.90;;;;;;21018375;28;20232;-83
2023/08/18 01:48:58;;;;;;;1.80;0.95;;;;;;;;;;20965008;28;20226;-82
2023/08/18 01:59:03;;;;;;;1.63;0.98;;;;;;;;;;20975958;28;20300;-83
2023/08/18 02:09:05;;;;;;;1.60;1.10;;;;;;;;;;21024474;28;20226;-83
2023/08/18 02:19:08;;;;;;;1.30;1.05;;;;;;;;;;20989736;28;20261;-83
2023/08/18 02:29:10;;;;;;;1.52;1.20;;;;;;;;;;20995398;28;20304;-81
2023/08/18 02:39:11;;;;;;;1.40;1.10;;;;;;;;;;20992441;28;20245;-84
2023/08/18 02:49:13;;;;;;;1.40;1.10;;;;;;;;;;21000783;28;20260;-84
2023/08/18 02:59:17;;;;;;;2.53;1.10;;;;;;;;;;21025462;28;20284;-84
2023/08/18 03:09:19;;;;;;;3.20;1.50;;;;;;;;;;20995264;28;20277;-82
2023/08/18 03:19:21;;;;;;;4.22;1.40;;;;;;;;;;20990772;28;20240;-84
2023/08/18 03:29:23;;;;;;;2.05;1.30;;;;;;;;;;21010738;28;20222;-84
2023/08/18 03:39:25;;;;;;;1.98;1.30;;;;;;;;;;20982424;28;20301;-83
2023/08/18 03:49:26;;;;;;;2.00;1.27;;;;;;;;;;20981054;28;20230;-84
2023/08/18 03:59:30;;;;;;;2.20;1.30;;;;;;;;;;21008154;28;20262;-84
2023/08/18 04:09:38;;;;;;;1.90;1.38;;;;;;;;;;20988362;28;20758;-83
2023/08/18 04:19:49;;;;;;;3.47;1.48;;;;;;;;;;21002418;28;20742;-84
2023/08/18 04:29:59;;;;;;;2.50;1.48;;;;;;;;;;20996028;28;20299;-85
2023/08/18 04:40:04;;;;;;;2.13;1.45;;;;;;;;;;21010794;28;20282;-83
2023/08/18 04:50:07;;;;;;;2.00;1.50;;;;;;;;;;21026939;28;20676;-84
2023/08/18 05:00:11;;;;;;;2.22;1.63;;;;;;;;;;20998788;28;20224;-82
2023/08/18 05:10:13;;;;;;;2.35;1.55;;;;;;;;;;20994081;28;20543;-83
2023/08/18 05:20:15;;;;;;;1.98;1.45;;;;;;;;;;21000892;28;20293;-82
2023/08/18 05:30:17;;;;;;;3.03;1.40;;;;;;;;;;21025683;28;20240;-82
2023/08/18 05:40:19;;;;;;;1.98;1.50;;;;;;;;;;20982407;28;20258;-81
2023/08/18 05:50:20;;;;;;;3.67;1.40;;;;;;;;;;20996466;28;20218;-83
2023/08/18 06:00:22;;;;;;;2.50;1.67;;;;;;;;;;20977963;28;20233;-82
2023/08/18 06:10:24;;;;;;;2.17;1.70;;;;;;;;;;21018154;28;20225;-83
2023/08/18 06:20:26;;;;;;;2.28;1.65;;;;;;;;;;21023978;28;20225;-82
2023/08/18 06:30:28;;;;;;;2.60;1.88;;;;;;;;;;21002451;28;20230;-83
2023/08/18 06:40:29;;;;;;;4.32;1.88;;;;;;;;;;21018234;28;20229;-83
2023/08/18 06:50:31;;;;;;;3.22;1.80;;;;;;;;;;20962601;28;20566;-83
2023/08/18 07:00:33;;;;;;;3.00;1.92;;;;;;;;;;21018100;28;20710;-83
2023/08/18 07:10:34;;;;;;;4.07;1.83;;;;;;;;;;21011458;28;20551;-83
2023/08/18 07:20:36;;;;;;;2.85;1.95;;;;;;;;;;20972313;28;20289;-83
2023/08/18 07:30:38;;;;;;;2.83;1.75;;;;;;;;;;21068305;28;20260;-83
2023/08/18 07:40:39;;;;;;;2.28;1.70;;;;;;;;;;20972172;28;20232;-86
2023/08/18 07:50:42;;;;;;;2.38;1.50;;;;;;;;;;20936585;28;20248;-83
2023/08/18 08:00:44;;;;;;;2.63;1.63;;;;;;;;;;20930782;28;20288;-82
2023/08/18 08:10:46;;;;;;;2.20;1.52;;;;;;;;;;20970045;28;20767;-83
2023/08/18 08:20:47;;;;;;;1.85;1.13;;;;;;;;;;21006557;28;20232;-84
2023/08/18 08:30:50;;;;;;;4.20;1.23;;;;;;;;;;21000548;28;20692;-84
2023/08/18 08:41:00;;;;;;;1.67;0.82;;;;;;;;;;20948712;28;20236;-81
2023/08/18 08:51:04;;;;;;;1.30;0.93;;;;;;;;;;20988963;28;20227;-82
2023/08/18 09:01:06;;;;;;;2.58;0.90;;;;;;;;;;21052788;28;20686;-83
2023/08/18 09:11:11;;;;;;;2.35;0.90;;;;;;;;;;20989201;28;20212;-84
2023/08/18 09:21:13;;;;;;;1.77;0.80;;;;;;;;;;20955387;28;20225;-83
2023/08/18 09:31:18;;;;;;;1.60;0.70;;;;;;;;;;21035292;28;20247;-83
2023/08/18 09:41:20;;;;;;;2.13;0.93;;;;;;;;;;21015508;28;20307;-84
2023/08/18 09:51:22;;;;;;;1.55;1.00;;;;;;;;;;21009180;28;20976;-84
2023/08/18 10:01:28;;;;;;;2.08;0.90;;;;;;;;;;21025317;28;20236;-84
2023/08/18 10:11:35;;;;;;;1.98;0.75;;;;;;;;;;20945814;28;20311;-84
2023/08/18 10:21:36;;;;;;;1.70;0.88;;;;;;;;;;20972350;28;20235;-82
2023/08/18 10:31:38;;;;;;;1.25;0.77;;;;;;;;;;20790537;28;4751740;-82
2023/08/18 10:41:42;;;;;;;1.45;0.77;;;;;;;;;;20995551;28;20639;-84
2023/08/18 10:51:44;;;;;;;1.08;0.73;;;;;;;;;;20967165;28;20235;-83
2023/08/18 11:01:46;;;;;;;3.47;1.30;;;;;;;;;;21019899;28;20236;-84
2023/08/18 11:11:48;;;;;;;1.35;0.70;;;;;;;;;;20963371;28;20225;-84
2023/08/18 11:21:49;;;;;;;2.13;0.80;;;;;;;;;;21022908;28;20298;-83
2023/08/18 11:31:51;;;;;;;2.50;0.93;;;;;;;;;;20976311;28;20233;-83
2023/08/18 11:41:53;;;;;;;1.38;0.90;;;;;;;;;;21061075;28;20328;-83
2023/08/18 11:51:55;;;;;;;1.30;0.73;;;;;;;;;;20959481;28;20225;-83
2023/08/18 12:02:04;;;;;;;0.80;0.63;;;;;;;;;;20994068;28;20217;-82
2023/08/18 12:12:12;;;;;;;1.38;0.73;;;;;;;;;;21005806;28;20213;-83
2023/08/18 12:22:14;;;;;;;1.40;0.65;;;;;;;;;;20949313;28;20229;-84
2023/08/18 12:32:16;;;;;;;2.20;0.80;;;;;;;;;;21021838;28;20237;-84
2023/08/18 12:42:17;;;;;;;1.17;0.70;;;;;;;;;;20987793;28;20290;-82
2023/08/18 12:52:19;;;;;;;1.20;0.80;;;;;;;;;;20999135;28;20233;-84
2023/08/18 13:02:21;;;;;;;1.83;0.60;;;;;;;;;;21016776;28;20820;-83
2023/08/18 13:12:23;;;;;;;3.17;0.70;;;;;;;;;;20972754;28;20229;-84
2023/08/18 13:22:25;;;;;;;1.48;0.65;;;31.80;99.90;;;;;;20970994;28;20237;-84
2023/08/18 13:32:26;;;;;;;0.80;0.60;;;;;;;;;;21004412;28;20233;-84
2023/08/18 13:42:28;;;;;;;1.10;0.60;;;;;;;;;;21020765;28;20225;-85
2023/08/18 13:52:30;;;;;;;2.13;0.57;;;;;;;;;;21019916;28;20701;-85
2023/08/18 14:02:32;;;;;;;1.77;0.68;;;;;;;;;;21051700;28;20578;-83
2023/08/18 14:12:34;;;;;;;1.83;0.73;;;;;;;;;;21039985;28;20217;-86
2023/08/18 14:22:36;;;;;;;1.40;0.60;;;;;;;;;;21041292;28;20232;-85
2023/08/18 14:32:38;;;;;;;1.48;0.70;;;;;;;;;;21038322;28;20232;-85
2023/08/18 14:42:39;;;;;;;2.53;0.65;;;;;;;;;;21060529;28;20274;-84
2023/08/18 14:52:41;;;;;;;1.80;0.63;;;;;;;;;;21076833;28;20700;-85
2023/08/18 15:02:45;;;;;;;1.42;0.80;;;;;;;;;;20992628;28;20233;-84
2023/08/18 15:12:49;;;;;;;1.40;0.73;;;;;;;;;;21033157;28;20221;-83
2023/08/18 15:22:51;;;;;;;1.52;0.60;;;;;;;;;;21020901;28;20639;-84
2023/08/18 15:32:53;;;;;;;0.52;0.50;;;;;;;;;;21006151;28;20713;-85
2023/08/18 15:42:54;;;;;;;1.75;0.75;;;;;;;;;;21015090;28;20225;-85
2023/08/18 15:52:56;;;;;;;3.85;0.63;;;;;;;;;;21028964;28;20213;-85
2023/08/18 16:02:59;;;;;;;2.85;0.52;;;;;;;;;;21046294;28;20290;-85
2023/08/18 16:13:00;;;;;;;1.48;0.63;;;;;;;;;;21050268;28;20225;-86
2023/08/18 16:23:02;;;;;;;1.63;0.60;;;;;;;;;;21060956;28;20301;-84
2023/08/18 16:33:04;;;;;;;2.53;0.68;;;;;;;;;;21048419;28;20317;-85
2023/08/18 16:43:05;;;;;;;0.90;0.50;;;;;;;;;;20999335;28;20258;-85
2023/08/18 16:53:07;;;;;;;1.52;0.70;;;;;;;;;;21028337;28;20290;-84
2023/08/18 17:03:09;;;;;;;0.80;0.50;;;;;;;;;;21020086;28;20307;-86
2023/08/18 17:13:11;;;;;;;1.63;0.65;;;;;;;;;;21041449;28;20224;-85
2023/08/18 17:23:13;;;;;;;1.70;0.57;;;;;;;;;;20994153;28;20228;-85
2023/08/18 17:33:15;;;;;;;3.78;0.90;;;;;;;;;;21000064;28;20222;-86
2023/08/18 17:43:16;;;;;;;1.98;0.77;;;;;;;;;;20946397;28;20252;-84
2023/08/18 17:53:18;;;;;;;1.17;0.60;;;;;;;;;;20994761;28;20238;-85
2023/08/18 18:03:20;;;;;;;2.05;0.80;;;;;;;;;;20979208;28;20236;-85
2023/08/18 18:13:23;;;;;;;2.00;1.33;;;;;;;;;;20961952;28;20262;-85
2023/08/18 18:23:26;;;;;;;3.60;0.80;;;;;;;;;;20992969;28;20217;-86
2023/08/18 18:33:47;;;;;;;3.20;0.90;;;;;;;;;;21004592;28;20574;-86
2023/08/18 18:44:11;;;;;;;2.03;0.70;;;;;;;;;;21000894;28;20241;-86
2023/08/18 18:54:17;;;;;;;4.90;0.98;;;;;;;;;;21024305;28;20224;-85
2023/08/18 19:04:19;;;;;;;2.50;1.27;;;;;;;;;;21007895;28;20251;-85
2023/08/18 19:14:21;;;;;;;2.92;0.90;;;;;;;;;;20994640;28;20647;-84
2023/08/18 19:35:53;;;;;;;5.18;1.40;;;;;;;;;;21114358;22;20842;-70
2023/08/18 19:45:59;;;;;;;3.30;1.50;;;;;;;;;;21066036;28;20211;-69
2023/08/18 19:56:02;;;;;;;3.20;1.10;;;;;;;;;;21094675;28;20257;-69
2023/08/18 20:06:04;;;;;;;3.00;1.63;;;;;;;;;;21096500;28;20606;-70
2023/08/18 20:16:07;;;;;;;2.03;0.90;;;;;;;;;;21112720;28;20294;-69
2023/08/18 20:26:09;;;;;;;2.80;0.90;;;;;;;;;;21077733;28;20239;-69
2023/08/18 20:36:11;;;;;;;1.83;1.00;;;;;;;;;;21087145;28;20261;-70
2023/08/18 20:46:13;;;;;;;2.15;1.00;;;;;;;;;;21035063;28;20296;-71
2023/08/18 20:56:15;;;;;;;3.83;1.00;;;;;;;;;;21028335;28;20285;-69
2023/08/18 21:06:17;;;;;;;2.58;0.80;;;;;;;;;;21089323;28;20571;-69
2023/08/18 21:16:19;;;;;;;3.78;1.00;;;;;;;;;;21045484;28;20247;-70
2023/08/18 21:26:22;;;;;;;1.88;1.08;;;;;;;;;;21065749;28;20242;-69
2023/08/18 21:36:24;;;;;;;2.53;0.98;;;;;;;;;;21071373;28;20231;-69
2023/08/18 21:46:26;;;;;;;1.75;0.88;;;;;;;;;;21068085;28;20219;-69
2023/08/18 21:56:28;;;;;;;2.30;0.90;;;;;;;;;;21060330;28;20227;-69
2023/08/18 22:06:39;;;;;;;2.25;1.05;;;;;;;;;;21067568;28;20664;-71
2023/08/18 22:16:41;;;;;;;2.50;1.10;;;;;;;;;;21093906;28;20222;-69
2023/08/18 22:26:44;;;;;;;2.55;0.77;;;;;;;;;;21108993;28;20219;-69
2023/08/18 22:36:46;;;;;;;0.90;0.60;;;;;;;;;;21123918;28;20235;-69
2023/08/18 22:47:08;;;;;;;1.17;0.70;;;;;;;;;;21024806;28;20241;-69
2023/08/18 22:57:10;;;;;;;1.92;0.90;;;;;;;;;;21027127;28;20274;-69
2023/08/18 23:07:12;;;;;;;3.30;1.08;;;;;;;;;;21095328;28;20183;-69
2023/08/18 23:17:14;;;;;;;2.65;0.90;;;;;;;;;;21105561;28;20279;-69
2023/08/18 23:27:16;;;;;;;4.55;0.88;;;;;;;;;;21104422;28;20191;-69
2023/08/18 23:37:18;;;;;;;1.70;0.90;;;;;;;;;;21103836;28;20294;-69
2023/08/18 23:47:21;;;;;;;1.67;1.10;;;;;;;;;;21084368;28;20554;-69
2023/08/18 23:57:23;;;;;;;3.60;1.20;;;;;;;;;;21083866;28;20223;-69
